BIENTÔT MET'MAP
version 2.0 !

Prévue avant fin octobre,
la nouvelle version sera
plus belle, plus complète
et hébergée sur un serveur
3 fois plus puissant...
et toujours gratuite !


Pas compatible ?
Essayez la version Mobile !

SE CONNECTER : | S'inscrire | Disclaimer | Découvrir Orbifly |
Code OACI :
Lgende : VFR VFR Marginal IFR IFR Intensif IFR Trs Intensif
Visi :
Plafond :
>= 8 km
>= 3000ft
5 8 km
1000 3000 ft
1500m 5 km
500 1000 ft
800 1500m
200 500 ft
< 800m
< 200 ft

METAR - ETNN Nörvenich Airforce Base - 16 Dec 2019 10:43 UTC
Data Sources :     NOAA   


- Altitude de l'aérodrome : 386 ft
- Code IATA : QOE
- Pas de NOTAMs connus.


ETNN - Nörvenich Airforce Base

Dernier METAR connu : 2015/08/11 07:20 ETNN 110720Z 00000KT 7000 FEW025 SCT250 19/16 Q1018 WHT WHT BECMG BLU+
TAF TAF ETNN
Valide du 16 à 09h jusqu'au 16 à 18h UTC


160815Z 1609/1618 14006KT 9999 NSW BKN060
PROB30 1609/1612 13005KT 5000 RADZ BKN020 BKN050 BY ETGL

Source NOAA


MET'MAP, la Météo Aéronautique d'un coup d'oeil ! - Copyright ORBIFLY Décembre 2007

Développement & Programmation : Alexandra Zaïnal
Co-Développement : Marc-Olivier Méhu
Soutien technique & logistique : Manuel Goepfert
Conception & Financement : Baudouin d'Aumeries